createdAt,value
2022-12-10T00:01:27.232Z,4.28
2022-12-10T00:03:54.709Z,2.75
2022-12-10T00:06:25.054Z,4.10
2022-12-10T00:08:52.839Z,1.67
2022-12-10T00:11:21.588Z,3.22
2022-12-10T00:13:49.932Z,3.40
2022-12-10T00:16:18.735Z,4.93
2022-12-10T00:18:46.371Z,2.97
2022-12-10T00:21:17.437Z,4.63
2022-12-10T00:23:44.922Z,4.38
2022-12-10T00:26:23.879Z,2.33
2022-12-10T00:28:52.154Z,2.67
2022-12-10T00:31:20.613Z,2.55
2022-12-10T00:33:48.645Z,3.13
2022-12-10T00:36:24.835Z,3.35
2022-12-10T00:38:52.572Z,2.70
2022-12-10T00:41:20.060Z,2.00
2022-12-10T00:43:47.385Z,3.03
2022-12-10T00:46:16.107Z,2.88
2022-12-10T00:48:44.416Z,2.35
2022-12-10T00:51:15.826Z,3.30
2022-12-10T00:53:44.605Z,4.20
2022-12-10T00:56:13.564Z,3.78
2022-12-10T00:58:40.680Z,2.80
2022-12-10T01:01:24.084Z,2.00
2022-12-10T01:03:53.745Z,2.47
2022-12-10T01:06:29.949Z,5.03
2022-12-10T01:08:59.129Z,4.38
2022-12-10T01:11:29.765Z,4.75
2022-12-10T01:13:57.882Z,2.90
2022-12-10T01:16:25.791Z,3.78
2022-12-10T01:19:00.422Z,3.25
2022-12-10T01:21:29.745Z,4.85
2022-12-10T01:23:58.251Z,3.42
2022-12-10T01:26:29.376Z,3.00
2022-12-10T01:29:01.033Z,4.95
2022-12-10T01:31:34.411Z,3.80
2022-12-10T01:34:03.265Z,3.15
2022-12-10T01:36:33.419Z,5.28
2022-12-10T01:39:01.870Z,2.40
2022-12-10T01:41:38.976Z,3.40
2022-12-10T01:44:10.132Z,3.17
2022-12-10T01:46:45.875Z,1.92
2022-12-10T01:49:20.640Z,2.22
2022-12-10T01:51:54.879Z,2.63
2022-12-10T01:54:29.144Z,2.15
2022-12-10T01:57:05.605Z,2.20
2022-12-10T01:59:34.668Z,2.30
2022-12-10T02:02:08.059Z,2.95
2022-12-10T02:04:56.949Z,3.05
2022-12-10T02:08:08.364Z,2.58
2022-12-10T02:11:12.402Z,2.67
2022-12-10T02:13:39.570Z,3.92
2022-12-10T02:16:16.295Z,3.38
2022-12-10T02:19:12.350Z,2.63
2022-12-10T02:21:43.449Z,2.20
2022-12-10T02:24:16.889Z,4.88
2022-12-10T02:27:30.256Z,3.63
2022-12-10T02:29:59.113Z,4.07
2022-12-10T02:32:36.171Z,4.25
2022-12-10T02:35:08.560Z,2.80
2022-12-10T02:37:45.332Z,2.70
2022-12-10T02:40:21.174Z,2.00
2022-12-10T02:42:52.547Z,2.63
2022-12-10T02:45:27.474Z,3.42
2022-12-10T02:48:00.468Z,2.67
2022-12-10T02:50:28.178Z,2.72
2022-12-10T02:52:55.409Z,4.97
2022-12-10T02:55:26.220Z,3.85
2022-12-10T02:57:59.157Z,3.80
2022-12-10T03:00:34.671Z,3.10
2022-12-10T03:03:20.490Z,3.53
2022-12-10T03:06:12.807Z,3.70
2022-12-10T03:09:07.269Z,3.42
2022-12-10T03:11:35.642Z,3.33
2022-12-10T03:14:12.107Z,3.28
2022-12-10T03:16:46.623Z,4.28
2022-12-10T03:19:22.308Z,2.00
2022-12-10T03:21:52.823Z,2.80
2022-12-10T03:24:21.485Z,1.80
2022-12-10T03:26:54.315Z,3.63
2022-12-10T03:29:36.266Z,3.10
2022-12-10T03:32:07.355Z,2.75
2022-12-10T03:34:36.181Z,2.78
2022-12-10T03:37:07.613Z,3.42
2022-12-10T03:39:39.052Z,2.53
2022-12-10T03:42:07.694Z,2.28
2022-12-10T03:44:38.049Z,2.42
2022-12-10T03:47:11.082Z,2.57
2022-12-10T03:49:38.295Z,2.17
2022-12-10T03:52:05.643Z,2.72
2022-12-10T03:54:33.073Z,3.22
2022-12-10T03:57:00.262Z,2.83
2022-12-10T03:59:31.030Z,2.10
2022-12-10T04:02:03.607Z,3.00
2022-12-10T04:04:34.154Z,2.90
2022-12-10T04:07:01.860Z,2.42
2022-12-10T04:09:29.233Z,3.40
2022-12-10T04:11:58.268Z,2.75
2022-12-10T04:14:45.602Z,3.45
2022-12-10T04:17:13.357Z,3.75
2022-12-10T04:19:47.153Z,3.22
2022-12-10T04:22:33.573Z,3.28
2022-12-10T04:25:19.746Z,2.63
2022-12-10T04:27:46.903Z,2.28
2022-12-10T04:30:14.365Z,2.42
2022-12-10T04:32:41.783Z,2.95
2022-12-10T04:35:09.514Z,4.72
2022-12-10T04:37:36.928Z,3.42
2022-12-10T04:40:04.737Z,2.80
2022-12-10T04:42:31.847Z,3.25
2022-12-10T04:44:59.079Z,2.83
2022-12-10T04:47:26.197Z,2.72
2022-12-10T04:49:53.307Z,2.55
2022-12-10T04:52:20.468Z,2.47
2022-12-10T04:54:47.577Z,2.55
2022-12-10T04:57:15.476Z,2.40
2022-12-10T04:59:42.512Z,2.65
2022-12-10T05:02:09.598Z,2.67
2022-12-10T05:04:37.272Z,2.90
2022-12-10T05:07:04.438Z,5.03
2022-12-10T05:09:31.634Z,3.40
2022-12-10T05:11:58.926Z,2.95
2022-12-10T05:14:26.268Z,3.38
2022-12-10T05:16:57.685Z,2.10
2022-12-10T05:19:27.357Z,2.40
2022-12-10T05:22:12.926Z,3.45
2022-12-10T05:24:40.255Z,3.53
2022-12-10T05:27:07.406Z,3.55
2022-12-10T05:29:35.383Z,2.50
2022-12-10T05:32:03.934Z,2.15
2022-12-10T05:34:31.225Z,2.67
2022-12-10T05:36:58.351Z,4.22
2022-12-10T05:39:25.571Z,3.25
2022-12-10T05:41:53.065Z,3.13
2022-12-10T05:44:20.472Z,3.53
2022-12-10T05:46:47.647Z,2.95
2022-12-10T05:49:14.736Z,3.90
2022-12-10T05:51:41.966Z,2.90
2022-12-10T05:54:11.087Z,3.03
2022-12-10T05:56:39.141Z,2.88
2022-12-10T05:59:14.614Z,2.50
2022-12-10T06:01:43.956Z,8.90
2022-12-10T06:04:14.225Z,3.45
2022-12-10T06:06:41.996Z,2.90
2022-12-10T06:09:13.300Z,3.60
2022-12-10T06:14:07.692Z,2.72
2022-12-10T06:16:34.903Z,2.25
2022-12-10T06:19:02.011Z,1.88
2022-12-10T06:21:29.249Z,2.30
2022-12-10T06:23:56.487Z,2.17
2022-12-10T06:26:26.383Z,3.53
2022-12-10T06:28:54.724Z,3.08
2022-12-10T06:31:22.944Z,3.20
2022-12-10T06:33:50.519Z,2.65
2022-12-10T06:36:18.671Z,2.47
2022-12-10T06:38:46.841Z,4.05
2022-12-10T06:41:15.891Z,1.92
2022-12-10T06:43:43.102Z,2.20
2022-12-10T06:46:15.682Z,3.15
2022-12-10T06:48:43.596Z,3.70
2022-12-10T06:51:12.008Z,2.30
2022-12-10T06:53:40.018Z,2.50
2022-12-10T06:56:08.185Z,5.05
2022-12-10T06:58:36.795Z,2.70
2022-12-10T07:01:06.389Z,2.22
2022-12-10T07:03:33.710Z,2.15
2022-12-10T07:06:02.565Z,2.78
2022-12-10T07:08:30.117Z,2.63
2022-12-10T07:10:57.990Z,3.15
2022-12-10T07:13:30.348Z,2.25
2022-12-10T07:15:58.088Z,2.33
2022-12-10T07:18:25.829Z,1.83
2022-12-10T07:20:53.357Z,3.67
2022-12-10T07:23:21.008Z,3.78
2022-12-10T07:25:51.741Z,3.35
2022-12-10T07:28:19.032Z,2.00
2022-12-10T07:30:46.329Z,2.95
2022-12-10T07:33:13.562Z,2.47
2022-12-10T07:35:47.374Z,2.83
2022-12-10T07:38:19.322Z,2.78
2022-12-10T07:40:46.573Z,4.00
2022-12-10T07:43:13.822Z,2.67
2022-12-10T07:45:44.899Z,3.08
2022-12-10T07:48:12.943Z,2.80
2022-12-10T07:50:40.385Z,4.85
2022-12-10T07:53:10.655Z,2.83
2022-12-10T07:55:38.799Z,2.77
2022-12-10T07:58:12.106Z,3.35
2022-12-10T08:00:40.877Z,2.88
2022-12-10T08:03:08.407Z,3.10
2022-12-10T08:05:35.823Z,1.73
2022-12-10T08:08:08.171Z,4.28
2022-12-10T08:10:40.214Z,3.20
2022-12-10T08:13:07.760Z,4.13
2022-12-10T08:15:39.007Z,15.73
2022-12-10T08:20:33.458Z,4.55
2022-12-10T08:23:05.292Z,3.40
2022-12-10T08:25:36.052Z,3.67
2022-12-10T08:28:11.616Z,3.20
2022-12-10T08:30:38.935Z,6.07
2022-12-10T08:33:06.759Z,3.83
2022-12-10T08:35:34.461Z,6.45
2022-12-10T08:38:01.728Z,5.55
2022-12-10T08:40:28.807Z,4.68
2022-12-10T08:42:57.494Z,4.47
2022-12-10T08:45:25.138Z,5.53
2022-12-10T08:47:53.099Z,3.38
2022-12-10T08:50:27.920Z,5.18
2022-12-10T08:52:55.101Z,5.63
2022-12-10T08:55:22.465Z,3.90
2022-12-10T08:57:49.853Z,4.93
2022-12-10T09:00:17.871Z,5.50
2022-12-10T09:02:44.968Z,7.90
2022-12-10T09:05:12.251Z,5.70
2022-12-10T09:07:39.642Z,5.25
2022-12-10T09:10:07.586Z,3.83
2022-12-10T09:12:36.078Z,3.60
2022-12-10T09:15:03.517Z,5.30
2022-12-10T09:17:30.662Z,3.83
2022-12-10T09:19:57.991Z,4.68
2022-12-10T09:22:25.951Z,7.57
2022-12-10T09:24:53.725Z,8.65
2022-12-10T09:27:22.139Z,7.22
2022-12-10T09:29:49.288Z,5.45
2022-12-10T09:32:16.515Z,5.40
2022-12-10T09:34:43.758Z,5.18
2022-12-10T09:37:10.932Z,6.57
2022-12-10T09:39:38.440Z,6.80
2022-12-10T09:42:08.482Z,5.38
2022-12-10T09:45:10.816Z,7.57
2022-12-10T09:48:06.339Z,5.25
2022-12-10T09:50:53.652Z,7.13
2022-12-10T09:53:22.915Z,5.68
2022-12-10T09:55:50.850Z,4.38
2022-12-10T09:58:30.224Z,5.57
2022-12-10T10:01:02.768Z,4.85
2022-12-10T10:03:37.630Z,5.53
2022-12-10T10:06:10.932Z,4.50
2022-12-10T10:08:42.338Z,7.35
2022-12-10T10:11:36.276Z,6.97
2022-12-10T10:14:11.751Z,4.53
2022-12-10T10:16:53.525Z,5.50
2022-12-10T10:19:31.617Z,6.85
2022-12-10T10:21:59.799Z,6.28
2022-12-10T10:24:48.131Z,7.07
2022-12-10T10:27:17.608Z,5.57
2022-12-10T10:29:45.998Z,4.88
2022-12-10T10:32:25.457Z,4.97
2022-12-10T10:34:59.682Z,9.65
2022-12-10T10:37:30.963Z,8.63
2022-12-10T10:42:34.281Z,5.10
2022-12-10T10:45:02.981Z,8.05
2022-12-10T10:47:34.964Z,5.88
2022-12-10T10:50:07.783Z,6.53
2022-12-10T10:52:39.599Z,9.18
2022-12-10T10:55:27.325Z,10.52
2022-12-10T10:57:54.702Z,7.72
2022-12-10T11:00:25.935Z,8.20
2022-12-10T11:02:53.888Z,7.45
2022-12-10T11:05:32.089Z,8.65
2022-12-10T11:08:19.294Z,6.28
2022-12-10T11:11:01.955Z,6.93
2022-12-10T11:13:31.612Z,5.90
2022-12-10T11:16:18.491Z,6.68
2022-12-10T11:19:03.649Z,5.22
2022-12-10T11:21:33.085Z,5.70
2022-12-10T11:24:01.316Z,4.93
2022-12-10T11:26:41.714Z,6.78
2022-12-10T11:29:17.960Z,6.97
2022-12-10T11:32:03.413Z,5.07
2022-12-10T11:34:56.050Z,6.43
2022-12-10T11:37:37.872Z,8.60
2022-12-10T11:40:20.329Z,5.88
2022-12-10T11:43:15.954Z,6.35
2022-12-10T11:45:50.227Z,5.65
2022-12-10T11:48:39.065Z,5.30
2022-12-10T11:51:28.686Z,4.65
2022-12-10T11:54:08.459Z,5.07
2022-12-10T11:56:48.300Z,4.80
2022-12-10T11:59:41.127Z,5.43
2022-12-10T12:02:53.041Z,8.80
2022-12-10T12:05:55.620Z,6.32
2022-12-10T12:08:34.930Z,4.75
2022-12-10T12:11:16.749Z,4.93
2022-12-10T12:14:10.269Z,9.32
2022-12-10T12:16:45.634Z,7.47
2022-12-10T12:19:18.884Z,7.45
2022-12-10T12:21:51.515Z,5.97
2022-12-10T12:24:26.588Z,10.68
2022-12-10T12:27:17.110Z,29.80
2022-12-10T12:30:01.964Z,22.08
2022-12-10T12:32:36.695Z,22.95
2022-12-10T12:35:18.735Z,28.65
2022-12-10T12:38:01.041Z,66.90
2022-12-10T12:40:37.440Z,97.57
2022-12-10T12:43:24.644Z,144.63
2022-12-10T12:45:55.174Z,24.38
2022-12-10T12:48:25.041Z,7.13
2022-12-10T12:50:57.051Z,6.00
2022-12-10T12:53:26.214Z,5.53
2022-12-10T12:56:19.488Z,6.00
2022-12-10T12:59:03.977Z,6.43
2022-12-10T13:01:45.066Z,6.65
2022-12-10T13:04:13.100Z,5.40
2022-12-10T13:06:45.465Z,4.30
2022-12-10T13:09:28.492Z,5.68
2022-12-10T13:12:04.574Z,4.43
2022-12-10T13:14:37.828Z,4.22
2022-12-10T13:17:28.770Z,4.43
2022-12-10T13:20:27.998Z,3.17
2022-12-10T13:23:27.391Z,4.18
2022-12-10T13:25:56.021Z,4.35
2022-12-10T13:28:26.084Z,3.97
2022-12-10T13:31:10.401Z,3.55
2022-12-10T13:34:00.815Z,4.07
2022-12-10T13:36:49.981Z,5.63
2022-12-10T13:39:47.551Z,4.47
2022-12-10T13:42:33.222Z,4.95
2022-12-10T13:45:25.687Z,5.90
2022-12-10T13:47:56.638Z,4.68
2022-12-10T13:50:40.258Z,6.28
2022-12-10T13:53:16.729Z,10.73
2022-12-10T13:56:08.712Z,11.77
2022-12-10T13:58:57.714Z,10.18
2022-12-10T14:01:39.135Z,12.27
2022-12-10T14:06:44.514Z,6.82
2022-12-10T14:09:28.572Z,5.97
2022-12-10T14:12:05.465Z,6.13
2022-12-10T14:14:40.321Z,5.85
2022-12-10T14:17:22.213Z,7.65
2022-12-10T14:19:54.274Z,7.97
2022-12-10T14:22:36.486Z,10.60
2022-12-10T14:25:08.710Z,8.45
2022-12-10T14:27:37.221Z,7.15
2022-12-10T14:30:07.804Z,6.70
2022-12-10T14:32:39.632Z,6.25
2022-12-10T14:35:13.420Z,7.53
2022-12-10T14:37:43.710Z,5.35
2022-12-10T14:40:18.764Z,6.90
2022-12-10T14:42:45.901Z,7.40
2022-12-10T14:45:16.183Z,7.85
2022-12-10T14:47:48.643Z,5.22
2022-12-10T14:50:17.893Z,5.50
2022-12-10T14:52:53.188Z,5.60
2022-12-10T14:55:25.214Z,4.80
2022-12-10T14:58:05.430Z,5.97
2022-12-10T15:00:33.315Z,5.20
2022-12-10T15:03:10.266Z,4.50
2022-12-10T15:05:38.322Z,5.22
2022-12-10T15:08:15.562Z,3.80
2022-12-10T15:10:51.420Z,6.53
2022-12-10T15:13:41.567Z,6.72
2022-12-10T15:16:21.553Z,6.18
2022-12-10T15:18:49.084Z,5.95
2022-12-10T15:21:21.094Z,13.07
2022-12-10T15:23:48.443Z,9.82
2022-12-10T15:26:21.366Z,8.93
2022-12-10T15:28:50.592Z,7.65
2022-12-10T15:31:32.137Z,7.15
2022-12-10T15:34:08.597Z,6.13
2022-12-10T15:36:46.018Z,6.18
2022-12-10T15:39:23.004Z,7.25
2022-12-10T15:41:52.607Z,6.10
2022-12-10T15:44:19.546Z,6.72
2022-12-10T15:47:04.238Z,5.53
2022-12-10T15:49:32.100Z,5.00
2022-12-10T15:51:59.374Z,5.43
2022-12-10T15:54:39.479Z,6.50
2022-12-10T15:57:26.776Z,8.68
2022-12-10T15:59:56.845Z,6.43
2022-12-10T16:02:29.841Z,6.25
2022-12-10T16:04:58.617Z,7.00
2022-12-10T16:07:25.689Z,8.52
2022-12-10T16:09:52.683Z,6.13
2022-12-10T16:12:20.796Z,9.27
2022-12-10T16:14:57.558Z,10.05
2022-12-10T16:17:24.902Z,8.60
2022-12-10T16:19:52.145Z,6.35
2022-12-10T16:22:19.136Z,6.28
2022-12-10T16:24:46.174Z,4.47
2022-12-10T16:27:16.977Z,5.25
2022-12-10T16:29:44.946Z,4.65
2022-12-10T16:32:12.771Z,4.03
2022-12-10T16:34:41.562Z,4.60
2022-12-10T16:37:09.953Z,5.40
2022-12-10T16:39:37.387Z,4.28
2022-12-10T16:42:04.588Z,3.45
2022-12-10T16:44:31.596Z,4.40
2022-12-10T16:46:59.653Z,4.32
2022-12-10T16:49:26.707Z,4.20
2022-12-10T16:51:53.852Z,4.70
2022-12-10T16:54:21.060Z,3.88
2022-12-10T16:56:48.225Z,3.20
2022-12-10T16:59:15.236Z,4.63
2022-12-10T17:01:42.344Z,3.88
2022-12-10T17:04:10.867Z,5.18
2022-12-10T17:06:37.887Z,3.80
2022-12-10T17:09:05.927Z,4.45
2022-12-10T17:11:45.736Z,3.60
2022-12-10T17:14:26.912Z,4.32
2022-12-10T17:16:56.897Z,4.18
2022-12-10T17:19:25.114Z,4.47
2022-12-10T17:21:52.668Z,4.55
2022-12-10T17:24:19.728Z,3.83
2022-12-10T17:26:48.325Z,5.88
2022-12-10T17:29:23.459Z,3.83
2022-12-10T17:31:50.604Z,4.15
2022-12-10T17:34:18.119Z,4.75
2022-12-10T17:36:45.362Z,4.05
2022-12-10T17:39:22.188Z,4.95
2022-12-10T17:41:50.353Z,5.07
2022-12-10T17:44:17.662Z,5.13
2022-12-10T17:46:44.664Z,12.68
2022-12-10T17:49:15.633Z,10.35
2022-12-10T17:51:43.757Z,10.55
2022-12-10T17:54:10.765Z,12.23
2022-12-10T17:56:37.964Z,8.95
2022-12-10T17:59:05.939Z,7.72
2022-12-10T18:01:33.133Z,6.95
2022-12-10T18:04:00.309Z,13.18
2022-12-10T18:06:30.638Z,16.65
2022-12-10T18:09:00.852Z,8.30
2022-12-10T18:11:34.169Z,9.00
2022-12-10T18:14:01.864Z,8.77
2022-12-10T18:16:36.398Z,10.05
2022-12-10T18:19:08.419Z,18.92
2022-12-10T18:21:35.409Z,18.98
2022-12-10T18:24:02.523Z,16.23
2022-12-10T18:26:29.997Z,18.73
2022-12-10T18:28:59.647Z,13.60
2022-12-10T18:31:29.865Z,8.38
2022-12-10T18:34:00.114Z,7.57
2022-12-10T18:36:37.197Z,12.15
2022-12-10T18:39:14.425Z,8.40
2022-12-10T18:41:41.657Z,6.68
2022-12-10T18:44:08.698Z,7.13
2022-12-10T18:46:38.329Z,6.28
2022-12-10T18:49:06.468Z,5.90
2022-12-10T18:51:33.526Z,7.03
2022-12-10T18:54:00.679Z,6.45
2022-12-10T18:56:30.656Z,7.85
2022-12-10T18:58:57.877Z,8.60
2022-12-10T19:01:25.500Z,7.15
2022-12-10T19:03:54.173Z,8.27
2022-12-10T19:06:26.717Z,7.75
2022-12-10T19:09:17.115Z,7.65
2022-12-10T19:11:43.283Z,7.55
2022-12-10T19:14:10.633Z,10.25
2022-12-10T19:16:37.661Z,8.90
2022-12-10T19:19:06.486Z,9.98
2022-12-10T19:21:34.385Z,10.70
2022-12-10T19:24:01.421Z,6.93
2022-12-10T19:26:40.223Z,6.85
2022-12-10T19:29:25.574Z,7.72
2022-12-10T19:31:52.891Z,4.82
2022-12-10T19:34:21.293Z,3.70
2022-12-10T19:36:50.066Z,4.18
2022-12-10T19:39:24.775Z,7.18
2022-12-10T19:41:53.037Z,4.78
2022-12-10T19:44:20.550Z,7.20
2022-12-10T19:46:47.739Z,8.52
2022-12-10T19:49:16.357Z,6.60
2022-12-10T19:51:44.009Z,12.27
2022-12-10T19:54:11.425Z,7.32
2022-12-10T19:56:38.706Z,6.25
2022-12-10T19:59:15.714Z,9.43
2022-12-10T20:01:43.802Z,9.25
2022-12-10T20:04:11.516Z,8.93
2022-12-10T20:06:41.229Z,11.32
2022-12-10T20:09:17.899Z,8.40
2022-12-10T20:11:45.144Z,6.65
2022-12-10T20:14:12.301Z,7.78
2022-12-10T20:16:41.577Z,8.45
2022-12-10T20:19:12.713Z,8.25
2022-12-10T20:21:39.718Z,9.35
2022-12-10T20:24:07.682Z,5.90
2022-12-10T20:26:37.758Z,4.45
2022-12-10T20:29:17.650Z,6.05
2022-12-10T20:31:46.580Z,6.85
2022-12-10T20:34:14.642Z,5.90
2022-12-10T20:36:42.518Z,8.10
2022-12-10T20:39:36.536Z,9.82
2022-12-10T20:42:04.881Z,6.35
2022-12-10T20:44:31.943Z,4.30
2022-12-10T20:46:59.140Z,6.47
2022-12-10T20:49:27.414Z,7.78
2022-12-10T20:51:54.936Z,4.78
2022-12-10T20:54:22.468Z,5.72
2022-12-10T20:56:49.810Z,7.00
2022-12-10T20:59:17.469Z,5.35
2022-12-10T21:01:44.819Z,5.28
2022-12-10T21:04:12.579Z,7.68
2022-12-10T21:06:40.899Z,4.13
2022-12-10T21:09:07.947Z,7.25
2022-12-10T21:11:35.486Z,5.65
2022-12-10T21:14:02.789Z,4.07
2022-12-10T21:16:31.034Z,6.10
2022-12-10T21:18:58.252Z,6.03
2022-12-10T21:21:28.084Z,4.63
2022-12-10T21:23:56.186Z,4.50
2022-12-10T21:26:23.690Z,4.70
2022-12-10T21:28:50.966Z,4.38
2022-12-10T21:31:25.058Z,5.13
2022-12-10T21:33:52.775Z,5.78
2022-12-10T21:36:22.444Z,5.07
2022-12-10T21:38:50.196Z,3.63
2022-12-10T21:41:40.243Z,5.50
2022-12-10T21:44:07.870Z,4.50
2022-12-10T21:46:35.124Z,4.72
2022-12-10T21:49:02.521Z,5.82
2022-12-10T21:51:30.999Z,4.28
2022-12-10T21:54:00.788Z,4.47
2022-12-10T21:56:28.716Z,3.70
2022-12-10T21:58:56.401Z,5.90
2022-12-10T22:01:23.591Z,7.32
2022-12-10T22:03:50.839Z,5.32
2022-12-10T22:06:19.960Z,5.35
2022-12-10T22:08:46.999Z,7.20
2022-12-10T22:11:14.938Z,8.38
2022-12-10T22:13:42.198Z,5.78
2022-12-10T22:16:10.542Z,8.52
2022-12-10T22:18:37.955Z,4.88
2022-12-10T22:21:05.446Z,4.90
2022-12-10T22:23:32.562Z,4.45
2022-12-10T22:25:59.653Z,4.82
2022-12-10T22:28:28.344Z,5.15
2022-12-10T22:30:56.426Z,4.75
2022-12-10T22:33:23.737Z,6.10
2022-12-10T22:35:50.932Z,3.65
2022-12-10T22:38:18.576Z,4.95
2022-12-10T22:40:45.697Z,3.42
2022-12-10T22:43:41.567Z,5.95
2022-12-10T22:46:00.564Z,5.15
2022-12-10T22:48:27.666Z,4.75
2022-12-10T22:51:05.255Z,4.68
2022-12-10T22:53:34.080Z,4.60
2022-12-10T22:56:06.067Z,4.15
2022-12-10T22:58:33.526Z,6.05
2022-12-10T23:01:00.832Z,3.60
2022-12-10T23:03:29.159Z,4.32
2022-12-10T23:05:56.428Z,3.50
2022-12-10T23:08:24.187Z,4.72
2022-12-10T23:10:51.938Z,3.22
2022-12-10T23:13:22.539Z,3.95
2022-12-10T23:15:52.224Z,3.08
2022-12-10T23:18:20.446Z,4.47
2022-12-10T23:20:50.222Z,5.35
2022-12-10T23:23:19.432Z,3.83
2022-12-10T23:25:47.252Z,3.67
2022-12-10T23:28:14.669Z,3.08
2022-12-10T23:30:42.078Z,3.70
2022-12-10T23:33:09.439Z,4.10
2022-12-10T23:35:42.698Z,3.05
2022-12-10T23:38:10.203Z,3.80
2022-12-10T23:40:40.961Z,2.90
2022-12-10T23:43:08.008Z,4.38
2022-12-10T23:45:35.077Z,4.10
2022-12-10T23:48:02.323Z,3.47
2022-12-10T23:50:33.164Z,1.98
2022-12-10T23:53:01.231Z,6.93
2022-12-10T23:55:28.729Z,4.70
2022-12-10T23:57:55.814Z,4.15
